Time;durP1;ratioP1;P1;durP2;ratioP2;P2;SDS_P1;SDS_P2;PMS_P1;PMS_P2;Temp;Humidity;BMP_temperature;BMP_pressure;BME280_temperature;BME280_humidity;BME280_pressure;Samples;Min_cycle;Max_cycle;Signal;HPM_P1;HPM_P2
2022/11/11 00:00:33;;;;;;;;;;;;;;;21.19;58.09;102112.91;7264801;19;152644;-55
2022/11/11 00:03:00;;;;;;;;;;;;;;;21.21;58.23;102127.50;7274486;19;153601;-52
2022/11/11 00:05:27;;;;;;;;;;;;;;;21.26;58.07;102126.66;7266828;19;153024;-53
2022/11/11 00:10:31;;;;;;;;;;;;;;;21.30;58.24;102127.81;7272966;19;153613;-53
2022/11/11 00:12:59;;;;;;;;;;;;;;;21.32;58.13;102131.16;7275701;19;153743;-53
2022/11/11 00:15:27;;;;;;;;;;;;;;;21.34;58.23;102131.72;7271834;19;153520;-54
2022/11/11 00:25:57;;;;;;;;;;;;;;;21.42;58.36;102122.69;7281208;19;153982;-52
2022/11/11 00:28:43;;;;;;;;;;;;;;;21.44;57.91;102131.66;7272463;19;155215;-53
2022/11/11 00:31:11;;;;;;;;;;;;;;;21.44;58.11;102142.09;7268631;19;154943;-53
2022/11/11 00:33:38;;;;;;;;;;;;;;;21.46;57.98;102140.69;7270744;19;153316;-53
2022/11/11 00:36:06;;;;;;;;;;;;;;;21.47;58.04;102135.91;7267792;19;153690;-53
2022/11/11 00:41:11;;;;;;;;;;;;;;;21.50;57.65;102141.78;7272893;19;153952;-53
2022/11/11 00:43:38;;;;;;;;;;;;;;;21.50;57.45;102140.94;7269008;19;152675;-54
2022/11/11 00:51:19;;;;;;;;;;;;;;;21.51;57.64;102146.28;7273402;19;152572;-54
2022/11/11 00:53:45;;;;;;;;;;;;;;;21.53;57.20;102146.84;7274505;19;152407;-54
2022/11/11 00:56:13;;;;;;;;;;;;;;;21.53;57.20;102146.00;7271430;19;153893;-54
2022/11/11 00:58:39;;;;;;;;;;;;;;;21.54;57.69;102145.72;7272344;19;153337;-54
2022/11/11 01:01:06;;;;;;;;;;;;;;;21.53;57.36;102146.84;7273594;19;152588;-54
2022/11/11 01:03:33;;;;;;;;;;;;;;;21.53;58.01;102148.84;7278457;19;152393;-53
2022/11/11 01:06:01;;;;;;;;;;;;;;;21.53;57.91;102144.03;7271482;19;154080;-53
2022/11/11 01:08:28;;;;;;;;;;;;;;;21.54;57.49;102147.69;7280009;19;152140;-54
2022/11/11 01:10:55;;;;;;;;;;;;;;;21.54;57.65;102147.69;7270414;19;154212;-54
2022/11/11 01:13:24;;;;;;;;;;;;;;;21.55;58.03;102146.56;7271706;19;152743;-55
2022/11/11 01:15:52;;;;;;;;;;;;;;;21.54;58.11;102156.97;7272117;19;152849;-53
2022/11/11 01:18:21;;;;;;;;;;;;;;;21.55;57.74;102149.38;7266790;19;154520;-53
2022/11/11 01:20:58;;;;;;;;;;;;;;;21.55;57.99;102150.22;7271069;19;152321;-53
2022/11/11 01:23:25;;;;;;;;;;;;;;;21.56;57.52;102145.44;7267636;19;152788;-54
2022/11/11 01:25:52;;;;;;;;;;;;;;;21.56;57.66;102154.72;7270170;19;154081;-54
2022/11/11 01:28:19;;;;;;;;;;;;;;;21.56;58.17;102148.25;7266642;19;154329;-54
2022/11/11 01:30:46;;;;;;;;;;;;;;;21.56;58.12;102149.09;7276501;19;153230;-54
2022/11/11 01:33:13;;;;;;;;;;;;;;;21.56;57.93;102151.91;7270552;19;152780;-54
2022/11/11 01:35:40;;;;;;;;;;;;;;;21.57;58.95;102149.94;7270263;19;152871;-54
2022/11/11 01:38:08;;;;;;;;;;;;;;;21.61;58.07;102146.25;7265303;19;153613;-53
2022/11/11 01:40:39;;;;;;;;;;;;;;;21.60;57.98;102152.16;7266461;19;152231;-54
2022/11/11 01:43:06;;;;;;;;;;;;;;;21.57;58.15;102147.13;7265689;19;153152;-54
2022/11/11 01:45:43;;;;;;;;;;;;;;;21.57;57.90;102138.69;7265988;19;154266;-54
2022/11/11 01:50:57;;;;;;;;;;;;;;;21.57;57.85;102141.50;7269325;19;154038;-54
2022/11/11 01:53:24;;;;;;;;;;;;;;;21.54;58.42;102131.66;7275052;19;154147;-54
2022/11/11 01:55:52;;;;;;;;;;;;;;;21.55;58.11;102138.97;7268327;19;153501;-54
2022/11/11 01:58:20;;;;;;;;;;;;;;;21.54;58.65;102131.66;7263597;19;155787;-54
2022/11/11 02:00:46;;;;;;;;;;;;;;;21.54;58.23;102136.44;7268364;19;154205;-54
2022/11/11 02:03:13;;;;;;;;;;;;;;;21.53;58.65;102129.16;7269001;19;153775;-54
2022/11/11 02:05:41;;;;;;;;;;;;;;;21.52;58.42;102135.88;7271261;19;154832;-54
2022/11/11 02:08:14;;;;;;;;;;;;;;;21.50;58.31;102136.16;7269545;19;154117;-54
2022/11/11 02:10:44;;;;;;;;;;;;;;;21.50;58.72;102138.97;7271046;19;153437;-56
2022/11/11 02:15:48;;;;;;;;;;;;;;;21.50;58.40;102144.59;7274022;19;153609;-54
2022/11/11 02:18:15;;;;;;;;;;;;;;;21.49;58.63;102144.88;7266102;19;155658;-54
2022/11/11 02:20:43;;;;;;;;;;;;;;;21.49;58.62;102140.09;7269255;19;151855;-54
2022/11/11 02:23:19;;;;;;;;;;;;;;;21.49;58.47;102145.72;7267694;19;154788;-54
2022/11/11 02:25:48;;;;;;;;;;;;;;;21.47;58.79;102142.38;7269047;19;155024;-60
2022/11/11 02:28:16;;;;;;;;;;;;;;;21.50;58.55;102141.78;7265327;19;152209;-54
2022/11/11 02:30:43;;;;;;;;;;;;;;;21.52;58.27;102149.94;7265684;19;155077;-54
2022/11/11 02:33:10;;;;;;;;;;;;;;;21.53;58.29;102148.84;7266150;19;154329;-54
2022/11/11 02:35:38;;;;;;;;;;;;;;;21.51;58.63;102137.84;7266522;19;152749;-54
2022/11/11 02:38:09;;;;;;;;;;;;;;;21.50;58.35;102141.78;7269203;19;153746;-54
2022/11/11 02:41:55;;;;;;;;;;;;;;;21.53;58.30;102148.84;7267601;19;152260;-54
2022/11/11 02:43:26;;;;;;;;;;;;;;;21.52;58.01;102144.31;7266535;19;153371;-54
2022/11/11 02:45:55;;;;;;;;;;;;;;;21.54;58.29;102147.69;7265517;19;153987;-54
2022/11/11 02:48:23;;;;;;;;;;;;;;;21.52;58.12;102133.91;7266784;19;153046;-54
2022/11/11 02:50:50;;;;;;;;;;;;;;;21.54;57.79;102131.66;7264713;19;153460;-54
2022/11/11 02:53:17;;;;;;;;;;;;;;;21.55;57.60;102121.25;7266283;19;153312;-54
2022/11/11 02:55:44;;;;;;;;;;;;;;;21.56;57.56;102125.75;7265701;19;154060;-54
2022/11/11 02:58:11;;;;;;;;;;;;;;;21.53;58.12;102129.16;7265823;19;152720;-54
2022/11/11 03:00:38;;;;;;;;;;;;;;;21.55;58.05;102124.06;7268979;19;154595;-54
2022/11/11 03:03:04;;;;;;;;;;;;;;;21.55;57.91;102126.88;7265638;19;153813;-54
2022/11/11 03:05:32;;;;;;;;;;;;;;;21.55;58.11;102124.06;7263374;19;154345;-54
2022/11/11 03:07:58;;;;;;;;;;;;;;;21.55;57.68;102133.34;7267299;19;153567;-54
2022/11/11 03:10:25;;;;;;;;;;;;;;;21.53;57.61;102124.34;7266680;19;153582;-54
2022/11/11 03:12:52;;;;;;;;;;;;;;;21.55;57.59;102126.88;7262749;19;154303;-53
2022/11/11 03:18:37;;;;;;;;;;;;;;;21.52;57.91;102119.03;7262220;19;152728;-54
2022/11/11 03:21:04;;;;;;;;;;;;;;;21.51;57.79;102122.94;7273127;19;153222;-54
2022/11/11 03:23:51;;;;;;;;;;;;;;;21.48;58.08;102121.56;7262906;19;154397;-53
2022/11/11 03:26:18;;;;;;;;;;;;;;;21.48;58.00;102115.09;7264951;19;154109;-53
2022/11/11 03:28:45;;;;;;;;;;;;;;;21.47;58.08;102119.88;7265702;19;153959;-53
2022/11/11 03:31:12;;;;;;;;;;;;;;;21.48;57.90;102126.34;7265450;19;151914;-54
2022/11/11 03:33:38;;;;;;;;;;;;;;;21.48;58.00;102126.34;7265971;19;154157;-54
2022/11/11 03:36:05;;;;;;;;;;;;;;;21.47;58.05;102119.88;7268185;19;154039;-54
2022/11/11 03:38:32;;;;;;;;;;;;;;;21.44;57.82;102114.81;7262692;19;152773;-54
2022/11/11 03:40:59;;;;;;;;;;;;;;;21.44;57.87;102117.63;7264932;19;152543;-54
2022/11/11 03:43:28;;;;;;;;;;;;;;;21.44;58.01;102122.44;7281051;19;153086;-54
2022/11/11 03:45:56;;;;;;;;;;;;;;;21.41;58.17;102126.63;7270576;19;153849;-53
2022/11/11 03:48:23;;;;;;;;;;;;;;;21.41;58.06;102128.59;7271208;19;151829;-54
2022/11/11 03:50:50;;;;;;;;;;;;;;;21.39;58.05;102119.63;7270791;19;152924;-54
2022/11/11 03:53:19;;;;;;;;;;;;;;;21.37;58.51;102119.91;7270063;19;153310;-53
2022/11/11 03:55:46;;;;;;;;;;;;;;;21.35;58.56;102124.94;7270115;19;151927;-54
2022/11/11 03:58:13;;;;;;;;;;;;;;;21.34;58.76;102125.25;7269253;19;153317;-54
2022/11/11 04:00:42;;;;;;;;;;;;;;;21.34;58.59;102131.72;7269532;19;156070;-54
2022/11/11 04:11:04;;;;;;;;;;;;;;;21.28;59.06;102125.28;7269367;19;153746;-54
2022/11/11 04:16:09;;;;;;;;;;;;;;;21.32;58.40;102116.25;7268831;19;153312;-54
2022/11/11 04:23:49;;;;;;;;;;;;;;;21.30;58.68;102123.00;7271613;19;151992;-54
2022/11/11 04:26:16;;;;;;;;;;;;;;;21.28;59.19;102118.81;7270099;19;153727;-54
2022/11/11 04:31:19;;;;;;;;;;;;;;;21.22;58.93;102123.59;7268153;19;153109;-53
2022/11/11 04:33:46;;;;;;;;;;;;;;;21.22;59.29;102128.38;7269467;19;155541;-54
2022/11/11 04:36:12;;;;;;;;;;;;;;;21.20;59.00;102125.00;7271092;19;153431;-54
2022/11/11 04:41:16;;;;;;;;;;;;;;;21.19;59.33;102126.97;7272465;19;153355;-54
2022/11/11 04:46:19;;;;;;;;;;;;;;;21.15;59.36;102125.88;7271127;19;152162;-54
2022/11/11 04:48:46;;;;;;;;;;;;;;;21.16;59.38;102135.16;7266889;19;153330;-54
2022/11/11 04:51:14;;;;;;;;;;;;;;;21.15;59.48;102139.06;7279866;19;153010;-54
2022/11/11 04:53:41;;;;;;;;;;;;;;;21.14;59.54;102128.94;7279486;19;153982;-54
2022/11/11 04:58:45;;;;;;;;;;;;;;;21.14;59.36;102126.97;7268883;19;154548;-54
2022/11/11 05:03:14;;;;;;;;;;;;;;;21.12;59.54;102126.38;7269848;19;153911;-54
2022/11/11 05:03:59;;;;;;;;;;;;;;;21.11;59.60;102132.31;7269989;19;153048;-54
2022/11/11 05:09:03;;;;;;;;;;;;;;;21.09;59.49;102121.34;7270351;19;154083;-54
2022/11/11 05:11:31;;;;;;;;;;;;;;;21.09;59.82;102128.91;7276673;19;152231;-54
2022/11/11 05:21:56;;;;;;;;;;;;;;;21.07;59.88;102134.00;7265835;19;154090;-54
2022/11/11 05:27:00;;;;;;;;;;;;;;;21.05;60.37;102127.81;7266567;19;152079;-54
2022/11/11 05:29:26;;;;;;;;;;;;;;;21.05;60.28;102130.63;7267614;19;153882;-54
2022/11/11 05:31:53;;;;;;;;;;;;;;;21.03;60.13;102125.28;7267079;19;153109;-54
2022/11/11 05:34:20;;;;;;;;;;;;;;;21.05;60.17;102128.66;7275866;19;153867;-54
2022/11/11 05:36:47;;;;;;;;;;;;;;;21.02;60.35;102129.22;7270730;19;151792;-54
2022/11/11 05:39:14;;;;;;;;;;;;;;;21.02;60.16;102128.38;7265850;19;154100;-54
2022/11/11 05:41:41;;;;;;;;;;;;;;;21.01;60.50;102137.94;7269488;19;154223;-54
2022/11/11 05:44:07;;;;;;;;;;;;;;;20.99;60.55;102138.19;7267856;19;152715;-54
2022/11/11 05:46:34;;;;;;;;;;;;;;;20.98;60.68;102135.69;7267169;19;154452;-54
2022/11/11 05:51:38;;;;;;;;;;;;;;;20.98;60.25;102144.13;7270417;19;152005;-54
2022/11/11 05:54:05;;;;;;;;;;;;;;;20.96;60.64;102140.75;7269359;19;153203;-54
2022/11/11 05:56:32;;;;;;;;;;;;;;;20.94;60.47;102143.00;7277194;19;153311;-54
2022/11/11 05:58:59;;;;;;;;;;;;;;;20.94;60.31;102152.25;7268583;19;153429;-54
2022/11/11 06:01:26;;;;;;;;;;;;;;;20.94;60.47;102140.19;7265942;19;153567;-54
2022/11/11 06:03:52;;;;;;;;;;;;;;;20.92;60.25;102137.66;7268427;19;153196;-54
2022/11/11 06:06:19;;;;;;;;;;;;;;;20.91;60.68;102135.13;7266419;19;153726;-54
2022/11/11 06:08:46;;;;;;;;;;;;;;;20.91;60.42;102149.16;7268310;19;154141;-54
2022/11/11 06:11:14;;;;;;;;;;;;;;;20.92;60.39;102139.63;7267946;19;153784;-54
2022/11/11 06:13:41;;;;;;;;;;;;;;;20.94;60.62;102145.81;7267674;19;153255;-54
2022/11/11 06:16:08;;;;;;;;;;;;;;;20.93;60.79;102150.59;7265170;19;154136;-54
2022/11/11 06:18:35;;;;;;;;;;;;;;;20.94;61.46;102146.63;7277567;19;152322;-53
2022/11/11 06:21:02;;;;;;;;;;;;;;;20.94;62.45;102152.25;7263196;19;153649;-54
2022/11/11 06:23:29;;;;;;;;;;;;;;;20.95;62.59;102158.72;7264882;19;152393;-54
2022/11/11 06:28:33;;;;;;;;;;;;;;;21.02;62.76;102162.09;7269786;19;154115;-54
2022/11/11 06:31:00;;;;;;;;;;;;;;;21.06;62.94;102172.50;7267317;19;152352;-54
2022/11/11 06:33:28;;;;;;;;;;;;;;;21.11;63.04;102161.25;7269578;19;154162;-54
2022/11/11 06:35:55;;;;;;;;;;;;;;;21.14;62.78;102171.94;7265817;19;153778;-54
2022/11/11 06:38:22;;;;;;;;;;;;;;;21.18;62.52;102167.44;7266049;19;153886;-54
2022/11/11 06:40:49;;;;;;;;;;;;;;;21.22;62.87;102174.19;7273339;19;153360;-54
2022/11/11 06:43:16;;;;;;;;;;;;;;;21.27;63.11;102167.72;7263990;19;152287;-54
2022/11/11 06:45:44;;;;;;;;;;;;;;;21.32;63.18;102176.13;7265249;19;153599;-54
2022/11/11 06:48:11;;;;;;;;;;;;;;;21.34;62.85;102171.09;7266105;19;153243;-54
2022/11/11 06:50:38;;;;;;;;;;;;;;;21.39;62.11;102179.50;7267581;19;153433;-54
2022/11/11 06:53:05;;;;;;;;;;;;;;;21.43;62.52;102189.06;7267032;19;154364;-54
2022/11/11 06:55:33;;;;;;;;;;;;;;;21.47;61.96;102193.00;7266208;19;153094;-54
2022/11/11 06:58:04;;;;;;;;;;;;;;;21.51;62.19;102191.28;7266144;19;152575;-56
2022/11/11 07:00:31;;;;;;;;;;;;;;;21.54;62.16;102196.34;7265008;19;153486;-54
2022/11/11 07:02:58;;;;;;;;;;;;;;;21.58;61.83;102196.59;7275333;19;153403;-54
2022/11/11 07:05:25;;;;;;;;;;;;;;;21.61;61.93;102194.09;7266791;19;152810;-54
2022/11/11 07:07:52;;;;;;;;;;;;;;;21.64;62.18;102198.28;7265993;19;154591;-54
2022/11/11 07:10:19;;;;;;;;;;;;;;;21.67;61.71;102206.97;7267532;19;152754;-54
2022/11/11 07:12:47;;;;;;;;;;;;;;;21.70;61.54;102200.81;7265895;19;152720;-54
2022/11/11 07:15:13;;;;;;;;;;;;;;;21.73;61.21;102197.41;7263313;19;153316;-54
2022/11/11 07:17:40;;;;;;;;;;;;;;;21.74;61.01;102207.53;7265474;19;152227;-54
2022/11/11 07:20:08;;;;;;;;;;;;;;;21.78;61.01;102207.81;7262896;19;154259;-54
2022/11/11 07:22:35;;;;;;;;;;;;;;;21.79;60.59;102206.69;7270383;19;153532;-54
2022/11/11 07:25:04;;;;;;;;;;;;;;;21.82;60.47;102208.06;7263345;19;153198;-54
2022/11/11 07:27:31;;;;;;;;;;;;;;;21.83;60.26;102221.00;7263002;19;155888;-54
2022/11/11 07:29:58;;;;;;;;;;;;;;;21.84;59.85;102217.06;7265458;19;152952;-54
2022/11/11 07:32:25;;;;;;;;;;;;;;;21.85;59.85;102227.22;7264206;19;153880;-55
2022/11/11 07:34:52;;;;;;;;;;;;;;;21.86;59.66;102220.44;7265601;19;153263;-54
2022/11/11 07:37:19;;;;;;;;;;;;;;;21.87;59.72;102222.13;7264824;19;153273;-54
2022/11/11 07:39:46;;;;;;;;;;;;;;;21.84;58.61;102219.88;7263977;19;155069;-53
2022/11/11 07:42:14;;;;;;;;;;;;;;;21.71;55.48;102226.97;7262201;19;154587;-53
2022/11/11 07:44:57;;;;;;;;;;;;;;;21.64;56.54;102235.69;7270540;19;152443;-54
2022/11/11 07:47:24;;;;;;;;;;;;;;;21.61;55.69;102229.81;7264782;19;154353;-54
2022/11/11 07:49:51;;;;;;;;;;;;;;;21.62;55.82;102221.06;7259908;19;152336;-54
2022/11/11 07:52:18;;;;;;;;;;;;;;;21.62;55.91;102231.50;7265276;19;152749;-54
2022/11/11 07:54:45;;;;;;;;;;;;;;;21.59;55.96;102240.47;7260843;19;153922;-54
2022/11/11 07:57:12;;;;;;;;;;;;;;;21.58;56.00;102252.84;7259956;19;153088;-55
2022/11/11 07:59:40;;;;;;;;;;;;;;;21.57;56.20;102254.00;7254800;19;153649;-54
2022/11/11 08:02:09;;;;;;;;;;;;;;;21.55;56.41;102259.91;7263414;19;153988;-53
2022/11/11 08:04:36;;;;;;;;;;;;;;;21.56;56.10;102261.59;7265375;19;152479;-54
2022/11/11 08:07:03;;;;;;;;;;;;;;;21.55;56.61;102273.13;7268736;19;153930;-54
2022/11/11 08:09:30;;;;;;;;;;;;;;;21.55;56.21;102262.72;7265327;19;152913;-54
2022/11/11 08:14:34;;;;;;;;;;;;;;;21.61;56.49;102277.63;7260701;19;153662;-57
2022/11/11 08:17:01;;;;;;;;;;;;;;;21.61;56.61;102269.19;7267043;19;153043;-53
2022/11/11 08:19:29;;;;;;;;;;;;;;;21.65;56.64;102268.31;7262506;19;154812;-54
2022/11/11 08:21:56;;;;;;;;;;;;;;;21.63;56.20;102269.72;7263185;19;154012;-55
2022/11/11 08:24:23;;;;;;;;;;;;;;;21.60;56.34;102267.47;7266567;19;152666;-55
2022/11/11 08:27:10;;;;;;;;;;;;;;;21.61;56.36;102269.19;7267190;19;153873;-55
2022/11/11 08:29:37;;;;;;;;;;;;;;;21.61;56.68;102275.66;7277950;19;152952;-54
2022/11/11 08:32:04;;;;;;;;;;;;;;;21.61;56.18;102275.66;7274456;19;153512;-54
2022/11/11 08:34:31;;;;;;;;;;;;;;;21.61;56.21;102272.84;7269751;19;156059;-55
2022/11/11 08:36:58;;;;;;;;;;;;;;;21.62;56.23;102280.13;7270135;19;152382;-55
2022/11/11 08:39:25;;;;;;;;;;;;;;;21.64;56.57;102286.31;7270646;19;153184;-54
2022/11/11 08:41:52;;;;;;;;;;;;;;;21.62;55.88;102280.13;7270902;19;154234;-54
2022/11/11 08:44:19;;;;;;;;;;;;;;;21.64;56.07;102282.66;7268902;19;152424;-54
2022/11/11 08:46:46;;;;;;;;;;;;;;;21.61;55.78;102278.47;7270063;19;153357;-54
2022/11/11 08:49:14;;;;;;;;;;;;;;;21.63;55.96;102281.81;7269714;19;154042;-55
2022/11/11 08:51:41;;;;;;;;;;;;;;;21.65;56.23;102284.34;7275945;19;152723;-54
2022/11/11 08:54:11;;;;;;;;;;;;;;;21.64;55.91;102289.13;7271398;19;153568;-54
2022/11/11 08:56:39;;;;;;;;;;;;;;;21.64;56.44;102291.94;7270760;19;152153;-53
2022/11/11 08:59:07;;;;;;;;;;;;;;;21.78;56.62;102291.34;7269914;19;153532;-53
2022/11/11 09:01:34;;;;;;;;;;;;;;;21.83;57.47;102297.81;7267926;19;153444;-54
2022/11/11 09:04:01;;;;;;;;;;;;;;;21.87;57.09;102293.31;7271061;19;152773;-56
2022/11/11 09:06:48;;;;;;;;;;;;;;;21.86;57.30;102293.59;7267967;19;154011;-54
2022/11/11 09:09:17;;;;;;;;;;;;;;;21.90;58.19;102297.50;7269393;19;155571;-53
2022/11/11 09:11:44;;;;;;;;;;;;;;;21.86;57.85;102302.03;7272378;19;153534;-54
2022/11/11 09:14:11;;;;;;;;;;;;;;;21.84;57.93;102299.53;7274595;19;153398;-54
2022/11/11 09:16:38;;;;;;;;;;;;;;;21.84;57.14;102305.16;7263711;19;152917;-54
2022/11/11 09:19:05;;;;;;;;;;;;;;;21.83;57.26;102299.78;7255714;19;153900;-54
2022/11/11 09:21:32;;;;;;;;;;;;;;;21.81;56.99;102305.69;7259123;19;153267;-55
2022/11/11 09:23:59;;;;;;;;;;;;;;;21.79;56.79;102309.94;7273340;19;152554;-54
2022/11/11 09:26:26;;;;;;;;;;;;;;;21.78;56.91;102305.44;7272121;19;153157;-54
2022/11/11 09:28:53;;;;;;;;;;;;;;;21.74;56.66;102306.00;7266921;19;152997;-54
2022/11/11 09:31:22;;;;;;;;;;;;;;;21.73;56.34;102311.91;7268080;19;154003;-54
2022/11/11 09:34:09;;;;;;;;;;;;;;;21.71;56.81;102320.63;7278499;19;153098;-54
2022/11/11 09:36:36;;;;;;;;;;;;;;;21.70;56.77;102323.75;7266680;19;153283;-54
2022/11/11 09:39:03;;;;;;;;;;;;;;;21.69;56.81;102327.66;7268243;19;152762;-54
2022/11/11 09:41:36;;;;;;;;;;;;;;;21.64;56.83;102322.88;7271280;19;153805;-54
2022/11/11 09:44:03;;;;;;;;;;;;;;;21.64;56.38;102330.47;7269960;19;152386;-54
2022/11/11 09:46:31;;;;;;;;;;;;;;;21.61;56.44;102336.69;7269574;19;152810;-54
2022/11/11 09:49:01;;;;;;;;;;;;;;;21.60;56.30;102333.03;7270189;19;153702;-55
2022/11/11 09:51:32;;;;;;;;;;;;;;;21.59;56.54;102341.72;7267346;19;152939;-54
2022/11/11 09:54:04;;;;;;;;;;;;;;;21.58;56.66;102335.25;7271688;19;154037;-54
2022/11/11 09:56:32;;;;;;;;;;;;;;;21.58;56.43;102349.31;7273753;19;153338;-54
2022/11/11 09:59:00;;;;;;;;;;;;;;;21.55;56.58;102344.28;7267700;19;152542;-54
2022/11/11 10:01:31;;;;;;;;;;;;;;;21.54;56.39;102356.63;7265684;19;153816;-54
2022/11/11 10:04:04;;;;;;;;;;;;;;;21.53;56.67;102371.81;7269972;19;154332;-54
2022/11/11 10:06:33;;;;;;;;;;;;;;;21.53;56.41;102359.75;7268867;19;153471;-54
2022/11/11 10:09:05;;;;;;;;;;;;;;;21.53;56.36;102365.38;7271629;19;154864;-54
2022/11/11 10:11:42;;;;;;;;;;;;;;;21.52;56.82;102372.97;7269597;19;152613;-55
2022/11/11 10:14:09;;;;;;;;;;;;;;;21.50;56.93;102379.97;7267220;19;152641;-54
2022/11/11 10:16:42;;;;;;;;;;;;;;;21.49;56.70;102383.91;7267780;19;153149;-55
2022/11/11 10:19:19;;;;;;;;;;;;;;;21.51;56.57;102381.66;7277515;19;152301;-54
2022/11/11 10:21:49;;;;;;;;;;;;;;;21.50;56.56;102380.81;7270938;19;154224;-54
2022/11/11 10:24:40;;;;;;;;;;;;;;;21.52;56.78;102381.41;7272676;19;153514;-54
2022/11/11 10:27:18;;;;;;;;;;;;;;;21.52;56.24;102392.66;7267459;19;156125;-54
2022/11/11 10:29:45;;;;;;;;;;;;;;;21.53;56.35;102388.69;7269427;19;153443;-55
2022/11/11 10:32:12;;;;;;;;;;;;;;;21.54;56.25;102392.34;7269909;19;152819;-54
2022/11/11 10:34:40;;;;;;;;;;;;;;;21.53;56.55;102391.50;7269834;19;153181;-54
2022/11/11 10:37:17;;;;;;;;;;;;;;;21.53;56.75;102388.69;7269440;19;153673;-54
2022/11/11 10:39:48;;;;;;;;;;;;;;;21.54;56.51;102389.53;7267677;19;152509;-54
2022/11/11 10:42:16;;;;;;;;;;;;;;;21.55;56.17;102400.53;7276076;19;153500;-54
2022/11/11 10:44:44;;;;;;;;;;;;;;;21.56;56.37;102401.38;7269091;19;152947;-54
2022/11/11 10:47:20;;;;;;;;;;;;;;;21.54;56.22;102406.41;7270684;19;153502;-54
2022/11/11 10:49:52;;;;;;;;;;;;;;;21.56;56.39;102409.81;7265836;19;154179;-54
2022/11/11 10:52:22;;;;;;;;;;;;;;;21.55;56.06;102408.13;7269326;19;153439;-55
2022/11/11 10:54:53;;;;;;;;;;;;;;;21.55;56.54;102408.97;7270296;19;151819;-54
2022/11/11 10:57:22;;;;;;;;;;;;;;;21.54;56.43;102412.88;7268621;19;152716;-55
2022/11/11 10:59:55;;;;;;;;;;;;;;;21.53;56.26;102407.56;7264526;19;153119;-54
2022/11/11 11:02:26;;;;;;;;;;;;;;;21.53;56.33;102399.94;7267892;19;153282;-54
2022/11/11 11:05:00;;;;;;;;;;;;;;;21.55;56.06;102396.84;7276259;19;153994;-55
2022/11/11 11:07:29;;;;;;;;;;;;;;;21.53;56.31;102399.94;7266655;19;153749;-54
2022/11/11 11:10:01;;;;;;;;;;;;;;;21.54;56.04;102406.41;7265439;19;153579;-54
2022/11/11 11:12:35;;;;;;;;;;;;;;;21.55;55.77;102397.72;7265077;19;152977;-55
2022/11/11 11:15:07;;;;;;;;;;;;;;;21.55;56.03;102402.47;7269603;19;152533;-54
2022/11/11 11:17:37;;;;;;;;;;;;;;;21.54;55.69;102407.25;7267398;19;155759;-55
2022/11/11 11:20:08;;;;;;;;;;;;;;;21.54;55.66;102398.81;7269682;19;152992;-54
2022/11/11 11:22:43;;;;;;;;;;;;;;;21.55;55.68;102402.47;7267946;19;154622;-54
2022/11/11 11:25:11;;;;;;;;;;;;;;;21.52;55.84;102403.06;7264209;19;154736;-54
2022/11/11 11:27:38;;;;;;;;;;;;;;;21.52;55.83;102392.66;7270355;19;152777;-54
2022/11/11 11:30:15;;;;;;;;;;;;;;;21.51;55.86;102396.59;7263998;19;154694;-55
2022/11/11 11:32:55;;;;;;;;;;;;;;;21.52;55.85;102389.84;7267328;19;154801;-54
2022/11/11 11:35:32;;;;;;;;;;;;;;;21.51;55.99;102390.09;7267663;19;153723;-54
2022/11/11 11:38:01;;;;;;;;;;;;;;;21.51;55.59;102390.09;7265609;19;154587;-54
2022/11/11 11:40:43;;;;;;;;;;;;;;;21.52;55.92;102391.81;7265939;19;152602;-54
2022/11/11 11:43:19;;;;;;;;;;;;;;;21.51;55.63;102385.34;7264154;19;153429;-55
2022/11/11 11:45:53;;;;;;;;;;;;;;;21.53;55.82;102393.50;7264824;19;153687;-54
2022/11/11 11:48:30;;;;;;;;;;;;;;;21.53;55.91;102388.69;7276419;19;152852;-54
2022/11/11 11:51:08;;;;;;;;;;;;;;;21.53;55.83;102393.50;7265839;19;153285;-54
2022/11/11 11:53:35;;;;;;;;;;;;;;;21.53;55.70;102390.69;7266762;19;153720;-54
2022/11/11 11:56:03;;;;;;;;;;;;;;;21.54;55.45;102395.16;7269295;19;153538;-54
2022/11/11 11:58:30;;;;;;;;;;;;;;;21.53;55.80;102397.13;7265347;19;153811;-54
2022/11/11 12:01:02;;;;;;;;;;;;;;;21.52;55.61;102398.28;7267719;19;152270;-54
2022/11/11 12:03:29;;;;;;;;;;;;;;;21.52;55.60;102395.47;7271964;19;152795;-55
2022/11/11 12:05:58;;;;;;;;;;;;;;;21.51;55.57;102407.84;7272922;19;154365;-54
2022/11/11 12:08:25;;;;;;;;;;;;;;;21.51;55.82;102410.66;7273036;19;153801;-55
2022/11/11 12:10:58;;;;;;;;;;;;;;;21.49;55.86;102410.06;7278617;19;152949;-54
2022/11/11 12:13:45;;;;;;;;;;;;;;;21.50;55.64;102403.31;7273690;19;153519;-54
2022/11/11 12:16:12;;;;;;;;;;;;;;;21.48;55.64;102408.41;7273085;19;153732;-54
2022/11/11 12:18:43;;;;;;;;;;;;;;;21.47;55.67;102401.09;7272788;19;154336;-54
2022/11/11 12:21:16;;;;;;;;;;;;;;;21.47;55.52;102408.66;7272576;19;152551;-55
2022/11/11 12:23:55;;;;;;;;;;;;;;;21.46;55.43;102399.38;7274418;19;153823;-54
2022/11/11 12:26:33;;;;;;;;;;;;;;;21.44;55.92;102393.19;7269390;19;153354;-54
2022/11/11 12:29:10;;;;;;;;;;;;;;;21.44;55.76;102378.31;7273233;19;153518;-54
2022/11/11 12:31:43;;;;;;;;;;;;;;;21.44;55.94;102386.75;7271923;19;154115;-54
2022/11/11 12:34:21;;;;;;;;;;;;;;;21.43;55.81;102383.09;7281010;19;153865;-55
2022/11/11 12:36:49;;;;;;;;;;;;;;;21.42;55.82;102380.53;7274709;19;153293;-55
2022/11/11 12:39:18;;;;;;;;;;;;;;;21.42;55.66;102377.72;7274754;19;153996;-55
2022/11/11 12:41:53;;;;;;;;;;;;;;;21.40;55.75;102385.59;7273281;19;152364;-55
2022/11/11 12:44:25;;;;;;;;;;;;;;;21.39;55.61;102378.31;7270421;19;153956;-56
2022/11/11 12:46:52;;;;;;;;;;;;;;;21.37;55.66;102381.38;7270192;19;154009;-56
2022/11/11 12:49:22;;;;;;;;;;;;;;;21.36;55.93;102388.13;7275276;19;153312;-56
2022/11/11 12:51:59;;;;;;;;;;;;;;;21.36;56.13;102396.56;7272789;19;153869;-56
2022/11/11 12:54:34;;;;;;;;;;;;;;;21.34;55.96;102393.19;7269962;19;153596;-56
2022/11/11 12:57:01;;;;;;;;;;;;;;;21.32;55.97;102394.56;7281633;19;153005;-56
2022/11/11 12:59:38;;;;;;;;;;;;;;;21.31;56.22;102399.34;7270478;19;153959;-56
2022/11/11 13:02:15;;;;;;;;;;;;;;;21.29;56.03;102393.19;7269491;19;154108;-56
2022/11/11 13:04:43;;;;;;;;;;;;;;;21.29;56.03;102398.81;7272427;19;153654;-56
2022/11/11 13:07:26;;;;;;;;;;;;;;;21.27;55.93;102398.22;7269017;19;153751;-56
2022/11/11 13:10:04;;;;;;;;;;;;;;;21.27;56.02;102389.78;7269015;19;152662;-55
2022/11/11 13:12:41;;;;;;;;;;;;;;;21.24;56.18;102381.94;7272284;19;153920;-56
2022/11/11 13:15:17;;;;;;;;;;;;;;;21.22;55.89;102389.78;7274231;19;153221;-56
2022/11/11 13:17:44;;;;;;;;;;;;;;;21.21;56.17;102383.31;7270636;19;152682;-56
2022/11/11 13:20:13;;;;;;;;;;;;;;;21.21;56.27;102391.75;7281059;19;153409;-56
2022/11/11 13:22:40;;;;;;;;;;;;;;;21.20;56.15;102386.41;7268011;19;154023;-56
2022/11/11 13:25:13;;;;;;;;;;;;;;;21.19;56.26;102395.97;7271852;19;153187;-56
2022/11/11 13:27:48;;;;;;;;;;;;;;;21.19;56.14;102384.72;7265057;19;154786;-56
2022/11/11 13:30:17;;;;;;;;;;;;;;;21.19;56.12;102379.94;7270598;19;153054;-56
2022/11/11 13:32:48;;;;;;;;;;;;;;;21.19;56.18;102377.13;7272302;19;153526;-56
2022/11/11 13:35:20;;;;;;;;;;;;;;;21.18;55.83;102369.81;7272081;19;153947;-56
2022/11/11 13:40:59;;;;;;;;;;;;;;;21.14;55.85;102379.09;7268797;19;153038;-56
2022/11/11 13:43:36;;;;;;;;;;;;;;;21.12;55.97;102381.31;7276711;19;152324;-56
2022/11/11 13:46:04;;;;;;;;;;;;;;;21.11;56.12;102374.00;7269309;19;153364;-56
2022/11/11 13:48:35;;;;;;;;;;;;;;;21.09;56.12;102379.88;7268604;19;153450;-56
2022/11/11 13:54:21;;;;;;;;;;;;;;;21.08;56.36;102375.38;7273434;19;152308;-56
2022/11/11 13:56:50;;;;;;;;;;;;;;;21.07;56.33;102381.31;7266957;19;153920;-56
2022/11/11 13:59:22;;;;;;;;;;;;;;;21.07;56.22;102372.88;7270692;19;152564;-56